createdAt,value
2023-05-22T00:03:44.757Z,14.15
2023-05-22T00:08:51.661Z,14.08
2023-05-22T00:13:58.576Z,14.01
2023-05-22T00:19:07.283Z,13.93
2023-05-22T00:24:14.426Z,13.90
2023-05-22T00:29:22.109Z,13.88
2023-05-22T00:34:29.215Z,13.83
2023-05-22T00:39:36.367Z,13.77
2023-05-22T00:44:43.485Z,13.72
2023-05-22T00:49:50.699Z,13.66
2023-05-22T00:54:57.774Z,13.62
2023-05-22T01:00:06.191Z,13.57
2023-05-22T01:05:18.179Z,13.51
2023-05-22T01:10:25.821Z,13.43
2023-05-22T01:15:41.178Z,13.36
2023-05-22T01:20:53.879Z,13.31
2023-05-22T01:26:21.930Z,13.25
2023-05-22T01:31:31.403Z,13.19
2023-05-22T01:36:39.774Z,13.17
2023-05-22T01:41:47.572Z,13.12
2023-05-22T01:46:55.065Z,13.05
2023-05-22T01:52:10.058Z,12.99
2023-05-22T01:57:25.090Z,12.95
2023-05-22T02:02:33.406Z,12.88
2023-05-22T02:07:43.058Z,12.83
2023-05-22T02:12:50.417Z,12.78
2023-05-22T02:18:02.046Z,12.72
2023-05-22T02:23:09.774Z,12.68
2023-05-22T02:28:16.712Z,12.63
2023-05-22T02:33:27.044Z,12.55
2023-05-22T02:38:34.177Z,12.51
2023-05-22T02:43:41.300Z,12.47
2023-05-22T02:48:48.277Z,12.39
2023-05-22T02:53:55.904Z,12.30
2023-05-22T02:59:03.301Z,12.22
2023-05-22T03:04:12.983Z,12.12
2023-05-22T03:09:21.977Z,12.04
2023-05-22T03:14:29.220Z,11.95
2023-05-22T03:19:36.643Z,11.88
2023-05-22T03:24:43.829Z,11.80
2023-05-22T03:29:51.861Z,11.76
2023-05-22T03:34:59.691Z,11.73
2023-05-22T03:40:08.843Z,11.71
2023-05-22T03:45:16.147Z,11.69
2023-05-22T03:50:23.363Z,11.68
2023-05-22T03:55:31.734Z,11.67
2023-05-22T04:00:39.515Z,11.67
2023-05-22T04:05:46.647Z,11.68
2023-05-22T04:10:54.624Z,11.70
2023-05-22T04:16:02.424Z,11.76
2023-05-22T04:21:10.345Z,11.89
2023-05-22T04:26:20.966Z,12.05
2023-05-22T04:31:28.059Z,12.21
2023-05-22T04:36:36.042Z,12.42
2023-05-22T04:41:43.052Z,12.61
2023-05-22T04:46:50.407Z,12.83
2023-05-22T04:51:57.603Z,13.08
2023-05-22T04:57:05.175Z,13.31
2023-05-22T05:02:12.614Z,13.53
2023-05-22T05:07:19.586Z,13.75
2023-05-22T05:12:26.566Z,13.94
2023-05-22T05:17:33.567Z,14.16
2023-05-22T05:22:44.086Z,14.42
2023-05-22T05:27:52.455Z,14.67
2023-05-22T05:33:01.414Z,14.89
2023-05-22T05:38:23.898Z,15.13
2023-05-22T05:43:30.852Z,15.36
2023-05-22T05:48:44.032Z,15.57
2023-05-22T05:53:52.149Z,15.74
2023-05-22T05:59:00.194Z,15.93
2023-05-22T06:04:29.515Z,16.15
2023-05-22T06:09:36.790Z,16.32
2023-05-22T06:15:08.730Z,16.48
2023-05-22T06:20:16.467Z,16.59
2023-05-22T06:25:26.091Z,16.66
2023-05-22T06:35:46.481Z,16.78
2023-05-22T06:40:53.535Z,16.83
2023-05-22T06:46:05.567Z,16.94
2023-05-22T06:51:21.185Z,17.09
2023-05-22T06:56:31.097Z,17.22
2023-05-22T07:01:42.914Z,17.39
2023-05-22T07:06:51.654Z,17.59
2023-05-22T07:11:59.030Z,17.76
2023-05-22T07:17:06.177Z,17.95
2023-05-22T07:22:17.998Z,18.11
2023-05-22T07:27:25.114Z,18.28
2023-05-22T07:32:34.203Z,18.44
2023-05-22T07:37:42.377Z,18.66
2023-05-22T07:42:49.399Z,18.82
2023-05-22T07:47:59.065Z,19.02
2023-05-22T07:53:06.543Z,19.24
2023-05-22T07:58:16.756Z,19.42
2023-05-22T08:03:25.385Z,19.59
2023-05-22T08:08:33.839Z,19.76
2023-05-22T08:13:40.701Z,19.91
2023-05-22T08:18:48.096Z,20.12
2023-05-22T08:23:55.037Z,20.35
2023-05-22T08:29:05.320Z,20.57
2023-05-22T08:34:12.192Z,20.76
2023-05-22T08:39:19.466Z,20.94
2023-05-22T08:44:26.723Z,21.14
2023-05-22T08:49:33.758Z,21.33
2023-05-22T08:54:44.176Z,21.52
2023-05-22T08:59:51.757Z,21.72
2023-05-22T09:04:59.131Z,21.93
2023-05-22T09:10:07.347Z,22.12
2023-05-22T09:15:16.698Z,22.28
2023-05-22T09:20:23.779Z,22.48
2023-05-22T09:25:31.890Z,22.68
2023-05-22T09:30:39.633Z,22.88
2023-05-22T09:35:49.731Z,23.08
2023-05-22T09:40:57.655Z,23.26
2023-05-22T09:46:05.636Z,23.50
2023-05-22T09:51:13.822Z,23.74
2023-05-22T09:56:35.245Z,23.86
2023-05-22T10:01:47.770Z,24.08
2023-05-22T10:06:58.440Z,24.38
2023-05-22T10:12:10.451Z,24.54
2023-05-22T10:17:18.628Z,24.57
2023-05-22T10:22:27.182Z,24.84
2023-05-22T10:27:34.200Z,24.95
2023-05-22T10:32:47.518Z,24.96
2023-05-22T10:37:56.696Z,24.96
2023-05-22T10:43:05.140Z,24.91
2023-05-22T10:48:13.739Z,24.99
2023-05-22T10:53:28.291Z,25.08
2023-05-22T10:58:37.476Z,25.30
2023-05-22T11:04:01.695Z,25.54
2023-05-22T11:09:31.023Z,25.69
2023-05-22T11:14:37.831Z,25.93
2023-05-22T11:19:45.322Z,26.05
2023-05-22T11:24:52.453Z,25.92
2023-05-22T11:30:00.671Z,26.13
2023-05-22T11:35:14.984Z,26.27
2023-05-22T11:40:24.551Z,26.47
2023-05-22T11:45:31.685Z,26.71
2023-05-22T11:50:42.296Z,27.01
2023-05-22T11:55:50.819Z,27.50
2023-05-22T12:01:02.549Z,28.21
2023-05-22T12:06:10.695Z,29.14
2023-05-22T12:11:17.906Z,29.58
2023-05-22T12:16:25.832Z,29.99
2023-05-22T12:21:33.916Z,31.19
2023-05-22T12:26:39.302Z,32.21
2023-05-22T12:31:47.471Z,32.94
2023-05-22T12:36:54.406Z,33.38
2023-05-22T12:42:01.386Z,33.74
2023-05-22T12:47:09.264Z,33.39
2023-05-22T12:52:16.785Z,32.78
2023-05-22T12:57:23.973Z,32.89
2023-05-22T13:02:31.134Z,33.35
2023-05-22T13:07:36.841Z,33.50
2023-05-22T13:12:46.980Z,33.57
2023-05-22T13:17:54.211Z,33.83
2023-05-22T13:23:01.474Z,33.75
2023-05-22T13:28:08.385Z,34.37
2023-05-22T13:33:15.536Z,34.09
2023-05-22T13:38:22.779Z,34.36
2023-05-22T13:43:29.702Z,34.82
2023-05-22T13:48:36.598Z,35.61
2023-05-22T13:53:43.727Z,35.75
2023-05-22T13:58:50.882Z,35.85
2023-05-22T14:03:58.083Z,36.07
2023-05-22T14:09:07.219Z,36.45
2023-05-22T14:14:14.334Z,36.57
2023-05-22T14:19:22.722Z,36.58
2023-05-22T14:24:29.750Z,36.30
2023-05-22T14:29:36.656Z,36.73
2023-05-22T14:34:44.085Z,36.71
2023-05-22T14:39:51.002Z,36.25
2023-05-22T14:44:58.804Z,36.17
2023-05-22T14:50:18.201Z,36.44
2023-05-22T14:55:27.825Z,36.99
2023-05-22T15:00:34.905Z,37.59
2023-05-22T15:05:42.034Z,37.72
2023-05-22T15:10:49.306Z,37.38
2023-05-22T15:15:58.094Z,37.23
2023-05-22T15:21:05.346Z,36.66
2023-05-22T15:26:12.328Z,36.10
2023-05-22T15:31:19.916Z,36.30
2023-05-22T15:36:28.270Z,36.03
2023-05-22T15:41:35.575Z,36.23
2023-05-22T15:46:42.601Z,36.17
2023-05-22T15:51:50.062Z,35.69
2023-05-22T15:56:56.957Z,35.55
2023-05-22T16:02:04.183Z,35.39
2023-05-22T16:07:11.213Z,35.14
2023-05-22T16:12:18.251Z,34.65
2023-05-22T16:17:25.120Z,34.11
2023-05-22T16:22:44.148Z,33.66
2023-05-22T16:27:55.086Z,33.31
2023-05-22T16:33:02.186Z,32.81
2023-05-22T16:38:12.166Z,31.89
2023-05-22T16:43:19.139Z,30.98
2023-05-22T16:48:26.127Z,30.37
2023-05-22T16:53:33.883Z,29.75
2023-05-22T16:58:41.876Z,29.04
2023-05-22T17:03:49.063Z,28.42
2023-05-22T17:08:56.225Z,28.08
2023-05-22T17:14:03.287Z,27.74
2023-05-22T17:19:10.333Z,27.31
2023-05-22T17:24:17.226Z,26.91
2023-05-22T17:29:25.101Z,26.47
2023-05-22T17:34:34.250Z,25.98
2023-05-22T17:39:41.300Z,25.51
2023-05-22T17:44:48.314Z,25.12
2023-05-22T17:49:55.230Z,24.79
2023-05-22T17:55:02.661Z,24.28
2023-05-22T18:00:12.203Z,23.94
2023-05-22T18:05:17.663Z,23.69
2023-05-22T18:10:26.836Z,23.41
2023-05-22T18:15:34.004Z,23.05
2023-05-22T18:20:41.210Z,22.76
2023-05-22T18:25:48.303Z,22.48
2023-05-22T18:30:55.432Z,22.20
2023-05-22T18:36:02.512Z,21.87
2023-05-22T18:41:10.178Z,21.57
2023-05-22T18:46:17.297Z,21.27
2023-05-22T18:51:24.891Z,21.01
2023-05-22T18:56:32.789Z,20.76
2023-05-22T19:01:39.872Z,20.45
2023-05-22T19:06:46.847Z,20.17
2023-05-22T19:11:54.393Z,19.87
2023-05-22T19:17:01.316Z,19.57
2023-05-22T19:22:08.519Z,19.35
2023-05-22T19:27:15.775Z,19.10
2023-05-22T19:32:22.663Z,18.88
2023-05-22T19:37:29.583Z,18.66
2023-05-22T19:42:38.308Z,18.41
2023-05-22T19:47:45.534Z,18.16
2023-05-22T19:52:52.392Z,17.91
2023-05-22T19:57:59.249Z,17.71
2023-05-22T20:03:06.538Z,17.51
2023-05-22T20:08:14.290Z,17.30
2023-05-22T20:13:21.691Z,17.12
2023-05-22T20:18:28.538Z,16.96
2023-05-22T20:23:35.430Z,16.81
2023-05-22T20:28:42.383Z,16.67
2023-05-22T20:33:49.286Z,16.53
2023-05-22T20:38:58.551Z,16.40
2023-05-22T20:44:06.555Z,16.27
2023-05-22T20:49:13.699Z,16.18
2023-05-22T20:54:20.788Z,16.09
2023-05-22T20:59:29.152Z,15.94
2023-05-22T21:04:36.292Z,15.77
2023-05-22T21:09:43.283Z,15.61
2023-05-22T21:14:50.675Z,15.49
2023-05-22T21:19:57.572Z,15.36
2023-05-22T21:25:04.815Z,15.21
2023-05-22T21:30:16.209Z,15.07
2023-05-22T21:35:23.145Z,14.88
2023-05-22T21:40:30.490Z,14.70
2023-05-22T21:45:38.972Z,14.55
2023-05-22T21:50:48.260Z,14.38
2023-05-22T21:55:55.287Z,14.19
2023-05-22T22:01:04.468Z,14.04
2023-05-22T22:06:11.937Z,13.90
2023-05-22T22:11:19.060Z,13.77
2023-05-22T22:16:28.185Z,13.66
2023-05-22T22:21:35.346Z,13.59
2023-05-22T22:26:42.811Z,13.48
2023-05-22T22:31:50.100Z,13.35
2023-05-22T22:36:57.532Z,13.26
2023-05-22T22:42:05.324Z,13.20
2023-05-22T22:47:12.456Z,13.11
2023-05-22T22:52:19.600Z,12.99
2023-05-22T22:57:26.644Z,12.90
2023-05-22T23:02:33.678Z,12.82
2023-05-22T23:07:40.793Z,12.76
2023-05-22T23:12:48.650Z,12.67
2023-05-22T23:17:55.802Z,12.60
2023-05-22T23:23:02.878Z,12.50
2023-05-22T23:28:09.907Z,12.39
2023-05-22T23:33:16.965Z,12.30
2023-05-22T23:38:23.869Z,12.19
2023-05-22T23:43:30.889Z,12.12
2023-05-22T23:48:37.991Z,12.04
2023-05-22T23:53:44.958Z,11.97
2023-05-22T23:58:52.142Z,11.92
